Warminster, United Kingdom
Current Conditions -  °F | °C
As of 5:50 AM on Monday 26 Jan 2015 (Local Time) from EGDM Reporting Station
Rain Showers Rain Showers  
Wind Chill: 41°   Ceiling: 7000
Heat Index: 46°   Visibility: 6mi
Dew Point: 46°   Wind: 12mph
Humidity: 100%   Direction: 260°W
Pressure: 30.18"   Gusts: NA
Location:  51.2°N, 2.18°W
Report Text: EGDM 260550Z AUTO 26010KT 9999 -SHRA FEW009/// BKN070/// 08/08 Q1022
Loading
Personal Weather Stations






























Interactive Weather Map New forecast layout! Learn more

10-Day Weather Forecast

Advertisements
Track Severe Weather on mobile